createdAt,value
2023-04-21T00:02:07.512Z,16.33
2023-04-21T00:04:35.977Z,16.33
2023-04-21T00:07:05.776Z,17.73
2023-04-21T00:09:34.028Z,18.67
2023-04-21T00:12:02.257Z,19.20
2023-04-21T00:14:30.553Z,17.23
2023-04-21T00:17:00.403Z,17.77
2023-04-21T00:19:28.970Z,17.87
2023-04-21T00:21:59.076Z,19.43
2023-04-21T00:24:28.883Z,16.43
2023-04-21T00:26:57.248Z,19.57
2023-04-21T00:29:25.902Z,18.40
2023-04-21T00:31:54.256Z,16.50
2023-04-21T00:34:22.557Z,16.80
2023-04-21T00:36:50.747Z,19.83
2023-04-21T00:39:19.255Z,16.47
2023-04-21T00:41:49.829Z,16.83
2023-04-21T00:44:18.146Z,18.03
2023-04-21T00:46:46.469Z,18.90
2023-04-21T00:49:16.360Z,18.90
2023-04-21T00:51:44.826Z,17.57
2023-04-21T00:54:13.432Z,18.67
2023-04-21T00:56:41.697Z,16.53
2023-04-21T00:59:11.453Z,18.47
2023-04-21T01:01:42.391Z,17.90
2023-04-21T01:04:11.331Z,15.83
2023-04-21T01:06:39.833Z,14.87
2023-04-21T01:09:08.172Z,17.57
2023-04-21T01:11:38.640Z,18.57
2023-04-21T01:14:08.948Z,17.90
2023-04-21T01:16:40.388Z,17.87
2023-04-21T01:19:08.733Z,16.07
2023-04-21T01:21:41.728Z,18.50
2023-04-21T01:24:10.128Z,17.93
2023-04-21T01:26:38.460Z,16.50
2023-04-21T01:29:06.832Z,16.93
2023-04-21T01:31:35.273Z,19.60
2023-04-21T01:34:05.352Z,19.23
2023-04-21T01:36:33.731Z,18.47
2023-04-21T01:39:04.213Z,21.57
2023-04-21T01:41:32.735Z,20.67
2023-04-21T01:44:01.206Z,19.77
2023-04-21T01:46:29.525Z,20.67
2023-04-21T01:48:58.025Z,23.30
2023-04-21T01:51:27.718Z,23.30
2023-04-21T01:53:55.966Z,23.53
2023-04-21T01:56:26.871Z,25.23
2023-04-21T01:58:56.013Z,25.63
2023-04-21T02:01:25.085Z,27.13
2023-04-21T02:03:53.554Z,29.63
2023-04-21T02:06:21.924Z,27.93
2023-04-21T02:08:50.232Z,28.57
2023-04-21T02:11:18.545Z,30.30
2023-04-21T02:13:48.133Z,31.90
2023-04-21T02:16:16.482Z,32.93
2023-04-21T02:18:48.411Z,36.43
2023-04-21T02:21:16.716Z,35.17
2023-04-21T02:23:44.953Z,32.30
2023-04-21T02:26:13.180Z,38.20
2023-04-21T02:28:41.422Z,38.60
2023-04-21T02:31:11.265Z,37.83
2023-04-21T02:33:39.726Z,40.70
2023-04-21T02:36:08.412Z,39.87
2023-04-21T02:38:36.678Z,42.73
2023-04-21T02:41:05.066Z,44.33
2023-04-21T02:43:35.168Z,42.27
2023-04-21T02:46:07.655Z,48.27
2023-04-21T02:48:37.826Z,45.10
2023-04-21T02:51:12.964Z,45.83
2023-04-21T02:53:41.930Z,47.53
2023-04-21T02:56:10.615Z,48.97
2023-04-21T02:58:39.825Z,50.33
2023-04-21T03:01:08.260Z,52.23
2023-04-21T03:03:37.963Z,47.63
2023-04-21T03:06:07.236Z,47.10
2023-04-21T03:08:35.853Z,45.60
2023-04-21T03:11:04.151Z,50.73
2023-04-21T03:13:32.397Z,53.57
2023-04-21T03:16:00.834Z,55.60
2023-04-21T03:18:29.158Z,54.43
2023-04-21T03:21:01.992Z,54.17
2023-04-21T03:23:30.325Z,57.33
2023-04-21T03:25:58.582Z,48.93
2023-04-21T03:28:27.006Z,50.93
2023-04-21T03:30:55.388Z,54.43
2023-04-21T03:33:23.600Z,52.17
2023-04-21T03:35:51.956Z,49.90
2023-04-21T03:38:21.775Z,50.83
2023-04-21T03:40:50.382Z,51.73
2023-04-21T03:43:18.649Z,49.50
2023-04-21T03:45:47.687Z,51.73
2023-04-21T03:48:16.071Z,49.73
2023-04-21T03:50:44.310Z,45.53
2023-04-21T03:53:12.868Z,58.80
2023-04-21T03:55:42.518Z,49.83
2023-04-21T03:58:10.733Z,57.13
2023-04-21T04:00:39.065Z,50.43
2023-04-21T04:03:07.648Z,52.17
2023-04-21T04:05:37.290Z,52.93
2023-04-21T04:08:06.540Z,49.43
2023-04-21T04:10:34.803Z,49.10
2023-04-21T04:13:04.414Z,51.57
2023-04-21T04:15:32.832Z,49.57
2023-04-21T04:18:01.733Z,55.47
2023-04-21T04:20:30.319Z,51.43
2023-04-21T04:22:58.616Z,53.73
2023-04-21T04:25:27.230Z,49.43
2023-04-21T04:27:55.667Z,48.50
2023-04-21T04:30:28.010Z,50.17
2023-04-21T04:32:57.833Z,49.70
2023-04-21T04:35:26.194Z,56.40
2023-04-21T04:37:55.068Z,52.10
2023-04-21T04:40:23.526Z,54.37
2023-04-21T04:42:52.415Z,50.60
2023-04-21T04:45:21.399Z,48.73
2023-04-21T04:47:51.830Z,53.33
2023-04-21T04:50:20.319Z,49.20
2023-04-21T04:52:49.770Z,53.03
2023-04-21T04:55:18.823Z,54.00
2023-04-21T04:57:47.001Z,56.27
2023-04-21T05:00:15.865Z,57.60
2023-04-21T05:02:44.269Z,51.67
2023-04-21T05:05:14.269Z,52.80
2023-04-21T05:07:42.684Z,58.17
2023-04-21T05:10:11.129Z,59.77
2023-04-21T05:12:39.375Z,60.50
2023-04-21T05:15:08.699Z,55.17
2023-04-21T05:17:36.982Z,63.17
2023-04-21T05:20:06.004Z,59.43
2023-04-21T05:22:38.210Z,54.53
2023-04-21T05:25:07.571Z,59.63
2023-04-21T05:27:35.802Z,58.03
2023-04-21T05:30:04.090Z,55.50
2023-04-21T05:32:32.681Z,55.63
2023-04-21T05:35:01.178Z,57.17
2023-04-21T05:37:29.700Z,62.47
2023-04-21T05:39:59.423Z,61.27
2023-04-21T05:42:27.696Z,63.63
2023-04-21T05:44:56.022Z,61.67
2023-04-21T05:47:24.272Z,66.33
2023-04-21T05:49:53.877Z,59.07
2023-04-21T05:52:22.575Z,69.37
2023-04-21T05:54:50.871Z,63.23
2023-04-21T05:57:20.505Z,60.20
2023-04-21T05:59:48.792Z,58.43
2023-04-21T06:02:17.179Z,55.40
2023-04-21T06:04:45.661Z,53.10
2023-04-21T06:07:14.796Z,56.97
2023-04-21T06:09:44.239Z,55.10
2023-04-21T06:12:12.465Z,50.73
2023-04-21T06:14:42.059Z,50.83
2023-04-21T06:17:10.426Z,56.47
2023-04-21T06:19:40.834Z,47.57
2023-04-21T06:22:10.334Z,54.43
2023-04-21T06:24:38.607Z,52.87
2023-04-21T06:27:11.858Z,54.13
2023-04-21T06:29:42.694Z,55.40
2023-04-21T06:32:11.415Z,53.57
2023-04-21T06:34:39.753Z,50.57
2023-04-21T06:37:08.007Z,48.47
2023-04-21T06:39:36.437Z,49.67
2023-04-21T06:42:04.969Z,49.77
2023-04-21T06:44:41.065Z,45.53
2023-04-21T06:47:09.695Z,46.20
2023-04-21T06:49:38.219Z,44.40
2023-04-21T06:52:06.483Z,42.17
2023-04-21T06:54:34.787Z,45.53
2023-04-21T06:57:03.257Z,43.63
2023-04-21T06:59:31.474Z,43.50
2023-04-21T07:02:01.253Z,43.47
2023-04-21T07:04:32.303Z,41.57
2023-04-21T07:07:03.066Z,43.70
2023-04-21T07:09:33.855Z,42.37
2023-04-21T07:12:02.737Z,44.47
2023-04-21T07:14:31.037Z,44.97
2023-04-21T07:17:00.767Z,42.83
2023-04-21T07:19:29.069Z,38.93
2023-04-21T07:21:58.268Z,40.00
2023-04-21T07:24:26.518Z,36.57
2023-04-21T07:26:54.812Z,38.70
2023-04-21T07:29:23.102Z,35.00
2023-04-21T07:31:51.877Z,39.30
2023-04-21T07:34:21.528Z,36.43
2023-04-21T07:36:49.786Z,31.33
2023-04-21T07:39:18.266Z,29.23
2023-04-21T07:41:46.641Z,31.03
2023-04-21T07:44:15.141Z,38.70
2023-04-21T07:46:43.605Z,34.03
2023-04-21T07:49:11.941Z,31.53
2023-04-21T07:51:41.629Z,32.87
2023-04-21T07:54:10.147Z,35.47
2023-04-21T07:56:39.749Z,29.93
2023-04-21T07:59:08.131Z,31.90
2023-04-21T08:01:36.477Z,29.53
2023-04-21T08:04:04.825Z,29.93
2023-04-21T08:06:33.569Z,36.50
2023-04-21T08:09:03.607Z,32.77
2023-04-21T08:11:31.850Z,29.80
2023-04-21T08:14:00.140Z,29.97
2023-04-21T08:16:28.476Z,30.23
2023-04-21T08:18:56.890Z,31.60
2023-04-21T08:21:25.611Z,31.37
2023-04-21T08:23:55.628Z,27.33
2023-04-21T08:26:25.731Z,29.07
2023-04-21T08:28:54.247Z,27.23
2023-04-21T08:31:22.933Z,26.73
2023-04-21T08:34:01.184Z,25.80
2023-04-21T08:36:30.752Z,25.10
2023-04-21T08:38:59.196Z,24.00
2023-04-21T08:41:28.951Z,22.73
2023-04-21T08:43:57.217Z,24.17
2023-04-21T08:46:25.695Z,22.23
2023-04-21T08:48:55.437Z,23.10
2023-04-21T08:51:25.349Z,22.63
2023-04-21T08:53:55.589Z,20.67
2023-04-21T08:56:26.230Z,22.47
2023-04-21T08:58:55.968Z,22.33
2023-04-21T09:01:24.311Z,25.57
2023-04-21T09:03:52.850Z,24.10
2023-04-21T09:06:22.728Z,22.60
2023-04-21T09:08:56.002Z,22.67
2023-04-21T09:11:24.570Z,20.50
2023-04-21T09:13:53.014Z,18.87
2023-04-21T09:16:23.470Z,18.83
2023-04-21T09:18:52.180Z,22.67
2023-04-21T09:21:23.255Z,21.10
2023-04-21T09:23:53.553Z,19.73
2023-04-21T09:26:23.827Z,18.40
2023-04-21T09:28:53.278Z,19.17
2023-04-21T09:31:25.632Z,21.07
2023-04-21T09:33:59.672Z,19.97
2023-04-21T09:36:32.335Z,17.97
2023-04-21T09:39:29.137Z,17.07
2023-04-21T09:41:51.253Z,15.47
2023-04-21T09:44:21.446Z,15.70
2023-04-21T09:46:52.399Z,17.70
2023-04-21T09:49:24.099Z,16.23
2023-04-21T09:52:10.421Z,15.30
2023-04-21T09:54:50.788Z,15.38
2023-04-21T09:57:25.382Z,13.27
2023-04-21T09:59:58.952Z,15.05
2023-04-21T10:02:32.395Z,13.93
2023-04-21T10:05:01.139Z,17.98
2023-04-21T10:07:29.714Z,16.00
2023-04-21T10:09:59.294Z,17.08
2023-04-21T10:12:29.139Z,19.97
2023-04-21T10:14:58.041Z,20.52
2023-04-21T10:17:28.350Z,15.98
2023-04-21T10:19:58.302Z,16.50
2023-04-21T10:22:31.435Z,17.20
2023-04-21T10:25:01.145Z,14.18
2023-04-21T10:27:33.833Z,15.77
2023-04-21T10:30:20.403Z,13.65
2023-04-21T10:33:02.883Z,15.43
2023-04-21T10:36:02.369Z,16.83
2023-04-21T10:38:40.916Z,15.30
2023-04-21T10:41:27.998Z,16.27
2023-04-21T10:43:59.592Z,20.23
2023-04-21T10:46:35.508Z,16.63
2023-04-21T10:49:09.672Z,16.25
2023-04-21T10:52:06.507Z,17.08
2023-04-21T10:54:42.018Z,17.50
2023-04-21T10:57:12.129Z,14.07
2023-04-21T10:59:41.058Z,17.05
2023-04-21T11:02:12.062Z,14.30
2023-04-21T11:04:46.075Z,13.20
2023-04-21T11:07:17.193Z,14.32
2023-04-21T11:09:47.934Z,14.82
2023-04-21T11:12:19.824Z,14.43
2023-04-21T11:14:49.041Z,11.52
2023-04-21T11:17:19.018Z,11.52
2023-04-21T11:19:52.509Z,10.52
2023-04-21T11:22:23.484Z,12.07
2023-04-21T11:24:55.871Z,10.95
2023-04-21T11:27:24.687Z,10.57
2023-04-21T11:29:53.454Z,11.30
2023-04-21T11:32:22.510Z,12.38
2023-04-21T11:34:52.338Z,12.82
2023-04-21T11:37:25.995Z,10.80
2023-04-21T11:40:01.204Z,13.30
2023-04-21T11:42:29.937Z,16.08
2023-04-21T11:44:59.218Z,14.23
2023-04-21T11:47:28.964Z,13.88
2023-04-21T11:50:00.181Z,13.85
2023-04-21T11:52:30.948Z,13.65
2023-04-21T11:55:01.377Z,11.68
2023-04-21T11:57:31.226Z,13.13
2023-04-21T12:00:00.167Z,12.68
2023-04-21T12:02:30.973Z,12.45
2023-04-21T12:05:03.586Z,12.48
2023-04-21T12:07:32.998Z,14.68
2023-04-21T12:10:02.782Z,15.02
2023-04-21T12:12:31.828Z,11.88
2023-04-21T12:15:04.572Z,13.80
2023-04-21T12:17:38.482Z,15.55
2023-04-21T12:20:09.761Z,14.57
2023-04-21T12:22:38.188Z,13.85
2023-04-21T12:25:07.414Z,15.52
2023-04-21T12:27:35.807Z,16.00
2023-04-21T12:30:04.641Z,14.05
2023-04-21T12:32:33.279Z,17.02
2023-04-21T12:35:02.322Z,16.25
2023-04-21T12:37:32.155Z,17.73
2023-04-21T12:40:00.483Z,17.13
2023-04-21T12:42:28.739Z,17.95
2023-04-21T12:44:57.018Z,16.80
2023-04-21T12:47:25.409Z,17.70
2023-04-21T12:49:53.676Z,17.92
2023-04-21T12:52:22.009Z,12.73
2023-04-21T12:54:51.646Z,17.15
2023-04-21T12:57:20.385Z,13.45
2023-04-21T12:59:49.112Z,13.15
2023-04-21T13:02:17.763Z,17.88
2023-04-21T13:04:46.256Z,17.33
2023-04-21T13:07:16.182Z,14.93
2023-04-21T13:09:44.824Z,14.90
2023-04-21T13:12:14.467Z,14.45
2023-04-21T13:14:42.811Z,18.77
2023-04-21T13:17:11.339Z,16.75
2023-04-21T13:19:39.678Z,15.88
2023-04-21T13:22:08.049Z,15.32
2023-04-21T13:24:36.495Z,15.80
2023-04-21T13:27:04.863Z,15.63
2023-04-21T13:29:35.025Z,15.75
2023-04-21T13:32:03.508Z,14.15
2023-04-21T13:34:32.992Z,15.68
2023-04-21T13:37:01.658Z,11.88
2023-04-21T13:39:30.436Z,12.02
2023-04-21T13:41:58.900Z,11.32
2023-04-21T13:44:27.378Z,10.70
2023-04-21T13:46:57.447Z,9.68
2023-04-21T13:49:25.876Z,9.85
2023-04-21T13:51:54.131Z,9.02
2023-04-21T13:54:22.734Z,8.70
2023-04-21T13:56:51.156Z,10.93
2023-04-21T13:59:21.103Z,8.93
2023-04-21T14:01:49.461Z,9.38
2023-04-21T14:04:21.230Z,7.50
2023-04-21T14:06:51.577Z,10.27
2023-04-21T14:09:20.030Z,8.68
2023-04-21T14:11:48.837Z,11.18
2023-04-21T14:14:27.655Z,8.10
2023-04-21T14:17:05.750Z,8.82
2023-04-21T14:19:35.988Z,9.35
2023-04-21T14:22:04.643Z,7.75
2023-04-21T14:24:33.001Z,8.88
2023-04-21T14:27:01.287Z,7.35
2023-04-21T14:29:29.540Z,7.60
2023-04-21T14:32:00.789Z,8.70
2023-04-21T14:34:29.179Z,11.27
2023-04-21T14:36:59.788Z,8.70
2023-04-21T14:39:28.327Z,7.05
2023-04-21T14:41:57.012Z,9.18
2023-04-21T14:44:25.291Z,9.00
2023-04-21T14:47:05.464Z,8.35
2023-04-21T14:49:37.390Z,7.60
2023-04-21T14:52:07.904Z,8.57
2023-04-21T14:54:36.406Z,8.15
2023-04-21T14:57:18.789Z,7.82
2023-04-21T14:59:49.205Z,8.30
2023-04-21T15:02:17.651Z,6.38
2023-04-21T15:04:46.075Z,8.32
2023-04-21T15:07:19.884Z,6.53
2023-04-21T15:09:52.222Z,7.15
2023-04-21T15:12:20.582Z,8.32
2023-04-21T15:14:48.900Z,7.00
2023-04-21T15:17:17.169Z,7.28
2023-04-21T15:19:45.446Z,8.15
2023-04-21T15:22:15.543Z,7.57
2023-04-21T15:24:44.017Z,7.50
2023-04-21T15:27:12.610Z,7.15
2023-04-21T15:29:41.109Z,7.22
2023-04-21T15:32:09.631Z,6.43
2023-04-21T15:34:37.945Z,6.18
2023-04-21T15:37:06.817Z,6.20
2023-04-21T15:39:36.864Z,7.10
2023-04-21T15:42:05.801Z,7.50
2023-04-21T15:44:34.939Z,8.63
2023-04-21T15:47:03.325Z,7.88
2023-04-21T15:49:31.846Z,6.95
2023-04-21T15:52:00.239Z,6.03
2023-04-21T15:54:28.788Z,6.38
2023-04-21T15:56:58.743Z,6.53
2023-04-21T15:59:27.369Z,6.88
2023-04-21T16:01:56.875Z,9.10
2023-04-21T16:04:25.425Z,10.20
2023-04-21T16:06:54.051Z,8.75
2023-04-21T16:09:22.537Z,8.57
2023-04-21T16:11:51.528Z,8.18
2023-04-21T16:14:21.405Z,8.13
2023-04-21T16:16:49.746Z,8.15
2023-04-21T16:19:18.138Z,8.05
2023-04-21T16:21:46.442Z,8.10
2023-04-21T16:24:14.869Z,8.30
2023-04-21T16:26:43.226Z,7.70
2023-04-21T16:29:11.838Z,8.13
2023-04-21T16:31:41.590Z,8.38
2023-04-21T16:34:09.953Z,7.78
2023-04-21T16:36:38.262Z,7.35
2023-04-21T16:39:06.887Z,8.18
2023-04-21T16:41:35.168Z,8.90
2023-04-21T16:44:03.621Z,8.68
2023-04-21T16:46:31.991Z,8.40
2023-04-21T16:49:01.714Z,9.57
2023-04-21T16:51:29.993Z,9.55
2023-04-21T16:53:58.483Z,10.75
2023-04-21T16:56:26.788Z,10.07
2023-04-21T16:58:55.217Z,10.77
2023-04-21T17:01:23.546Z,10.60
2023-04-21T17:03:52.106Z,10.88
2023-04-21T17:06:21.959Z,10.35
2023-04-21T17:08:50.229Z,11.38
2023-04-21T17:11:18.544Z,11.93
2023-04-21T17:13:46.887Z,13.80
2023-04-21T17:16:15.239Z,13.85
2023-04-21T17:18:43.560Z,17.80
2023-04-21T17:21:12.687Z,18.27
2023-04-21T17:23:42.307Z,14.10
2023-04-21T17:26:13.130Z,14.53
2023-04-21T17:28:42.052Z,33.10
2023-04-21T17:31:15.595Z,15.87
2023-04-21T17:33:45.166Z,20.50
2023-04-21T17:36:13.551Z,24.23
2023-04-21T17:38:43.273Z,32.90
2023-04-21T17:41:11.727Z,34.80
2023-04-21T17:43:40.032Z,31.77
2023-04-21T17:46:09.225Z,31.67
2023-04-21T17:48:37.498Z,32.23
2023-04-21T17:51:05.905Z,30.30
2023-04-21T17:53:34.622Z,39.40
2023-04-21T17:56:04.332Z,31.10
2023-04-21T17:58:32.631Z,33.33
2023-04-21T18:01:00.947Z,31.17
2023-04-21T18:03:29.537Z,28.17
2023-04-21T18:05:58.430Z,28.90
2023-04-21T18:08:26.943Z,26.80
2023-04-21T18:10:56.018Z,23.27
2023-04-21T18:13:25.729Z,23.37
2023-04-21T18:15:54.058Z,24.47
2023-04-21T18:18:22.403Z,24.27
2023-04-21T18:20:50.688Z,22.13
2023-04-21T18:23:18.996Z,21.77
2023-04-21T18:25:47.651Z,23.93
2023-04-21T18:28:16.021Z,22.23
2023-04-21T18:30:45.686Z,21.90
2023-04-21T18:33:14.047Z,24.83
2023-04-21T18:35:42.944Z,23.30
2023-04-21T18:38:11.896Z,20.33
2023-04-21T18:40:41.385Z,27.03
2023-04-21T18:43:10.929Z,23.43
2023-04-21T18:45:39.648Z,29.00
2023-04-21T18:48:09.579Z,30.77
2023-04-21T18:50:40.325Z,33.03
2023-04-21T18:53:09.608Z,36.30
2023-04-21T18:55:38.482Z,46.03
2023-04-21T18:58:07.088Z,41.03
2023-04-21T19:00:38.827Z,37.63
2023-04-21T19:03:07.779Z,38.43
2023-04-21T19:05:40.492Z,44.57
2023-04-21T19:08:10.326Z,41.97
2023-04-21T19:10:39.181Z,43.97
2023-04-21T19:13:07.506Z,47.93
2023-04-21T19:15:36.686Z,52.67
2023-04-21T19:18:05.292Z,55.60
2023-04-21T19:20:35.655Z,51.50
2023-04-21T19:23:06.130Z,49.67
2023-04-21T19:25:34.887Z,43.07
2023-04-21T19:28:03.243Z,36.90
2023-04-21T19:30:31.612Z,35.37
2023-04-21T19:32:59.873Z,42.30
2023-04-21T19:35:28.801Z,41.80
2023-04-21T19:37:57.072Z,41.33
2023-04-21T19:40:27.036Z,36.80
2023-04-21T19:42:55.748Z,35.97
2023-04-21T19:45:24.066Z,34.70
2023-04-21T19:47:52.724Z,30.07
2023-04-21T19:50:21.400Z,30.57
2023-04-21T19:52:49.676Z,29.93
2023-04-21T19:55:17.959Z,32.50
2023-04-21T19:57:47.586Z,42.03
2023-04-21T20:00:16.878Z,44.33
2023-04-21T20:02:45.294Z,51.77
2023-04-21T20:05:14.039Z,61.77
2023-04-21T20:07:42.315Z,57.63
2023-04-21T20:10:11.856Z,63.70
2023-04-21T20:12:40.205Z,71.90
2023-04-21T20:15:11.916Z,65.00
2023-04-21T20:17:41.490Z,72.53
2023-04-21T20:20:11.044Z,66.50
2023-04-21T20:22:39.495Z,75.33
2023-04-21T20:25:08.555Z,75.40
2023-04-21T20:27:36.841Z,71.17
2023-04-21T20:30:05.955Z,79.20
2023-04-21T20:32:36.613Z,65.90
2023-04-21T20:35:05.706Z,78.03
2023-04-21T20:37:34.278Z,80.30
2023-04-21T20:40:04.628Z,76.33
2023-04-21T20:42:33.446Z,78.73
2023-04-21T20:45:03.637Z,79.83
2023-04-21T20:47:35.926Z,73.00
2023-04-21T20:50:04.884Z,69.17
2023-04-21T20:52:33.196Z,61.17
2023-04-21T20:55:01.567Z,57.23
2023-04-21T20:57:30.287Z,62.40
2023-04-21T20:59:58.501Z,61.67
2023-04-21T21:02:27.009Z,50.77
2023-04-21T21:04:56.760Z,59.27
2023-04-21T21:07:25.390Z,52.33
2023-04-21T21:09:53.711Z,52.43
2023-04-21T21:12:22.261Z,56.33
2023-04-21T21:14:50.525Z,56.27
2023-04-21T21:17:18.908Z,59.97
2023-04-21T21:19:47.177Z,60.97
2023-04-21T21:22:16.849Z,58.83
2023-04-21T21:24:45.099Z,57.43
2023-04-21T21:27:13.528Z,56.90
2023-04-21T21:29:41.950Z,48.33
2023-04-21T21:32:10.281Z,51.80
2023-04-21T21:34:38.765Z,51.63
2023-04-21T21:37:07.026Z,52.37
2023-04-21T21:39:36.895Z,49.90
2023-04-21T21:42:05.828Z,55.37
2023-04-21T21:44:34.063Z,53.17
2023-04-21T21:47:02.338Z,49.77
2023-04-21T21:49:30.605Z,49.40
2023-04-21T21:51:58.969Z,47.23
2023-04-21T21:54:27.175Z,53.07
2023-04-21T21:56:57.651Z,49.20
2023-04-21T21:59:26.199Z,46.10
2023-04-21T22:01:54.567Z,53.30
2023-04-21T22:04:22.870Z,50.70
2023-04-21T22:06:52.008Z,59.93
2023-04-21T22:09:21.017Z,57.93
2023-04-21T22:11:49.379Z,57.07
2023-04-21T22:14:23.504Z,59.10
2023-04-21T22:16:54.007Z,50.07
2023-04-21T22:19:22.689Z,56.13
2023-04-21T22:21:50.997Z,58.30
2023-04-21T22:24:19.560Z,58.77
2023-04-21T22:26:48.350Z,79.90
2023-04-21T22:29:17.994Z,67.00
2023-04-21T22:31:46.357Z,67.40
2023-04-21T22:34:15.096Z,57.93
2023-04-21T22:36:43.520Z,61.07
2023-04-21T22:39:11.818Z,63.57
2023-04-21T22:41:40.290Z,60.77
2023-04-21T22:44:08.668Z,65.70
2023-04-21T22:46:38.432Z,68.50
2023-04-21T22:49:06.773Z,73.67
2023-04-21T22:51:35.067Z,66.63
2023-04-21T22:54:03.472Z,70.10
2023-04-21T22:56:32.093Z,78.90
2023-04-21T22:59:00.776Z,73.00
2023-04-21T23:01:29.195Z,69.43
2023-04-21T23:03:59.103Z,69.57
2023-04-21T23:06:28.415Z,72.87
2023-04-21T23:08:56.771Z,71.80
2023-04-21T23:11:25.344Z,67.57
2023-04-21T23:13:53.671Z,78.40
2023-04-21T23:16:21.955Z,79.23
2023-04-21T23:18:50.236Z,77.13
2023-04-21T23:21:19.897Z,81.73
2023-04-21T23:23:48.112Z,81.70
2023-04-21T23:26:16.364Z,74.63
2023-04-21T23:28:44.633Z,83.80
2023-04-21T23:31:12.914Z,79.73
2023-04-21T23:33:41.252Z,76.87
2023-04-21T23:36:09.675Z,68.87
2023-04-21T23:38:39.297Z,78.57
2023-04-21T23:41:07.636Z,75.33
2023-04-21T23:43:37.289Z,80.57
2023-04-21T23:46:05.613Z,74.33
2023-04-21T23:48:34.847Z,72.77
2023-04-21T23:51:03.219Z,74.53
2023-04-21T23:53:31.621Z,76.23
2023-04-21T23:56:01.403Z,71.83
2023-04-21T23:58:29.650Z,64.90
